sensor_id;sensor_type;location;lat;lon;timestamp;pressure;altitude;pressure_sealevel;temperature;humidity
29197;BME280;62796;42.654;23.316;2022-09-28T00:01:33;93578.41;;;16.19;69.68
29197;BME280;62796;42.654;23.316;2022-09-28T00:04:00;93567.13;;;16.13;69.39
29197;BME280;62796;42.654;23.316;2022-09-28T00:06:28;93565.53;;;16.12;69.10
29197;BME280;62796;42.654;23.316;2022-09-28T00:08:54;93560.97;;;16.12;70.14
29197;BME280;62796;42.654;23.316;2022-09-28T00:11:21;93553.78;;;16.04;69.50
29197;BME280;62796;42.654;23.316;2022-09-28T00:13:51;93559.44;;;16.03;69.89
29197;BME280;62796;42.654;23.316;2022-09-28T00:16:19;93569.03;;;16.04;69.85
29197;BME280;62796;42.654;23.316;2022-09-28T00:18:46;93577.38;;;16.02;69.63
29197;BME280;62796;42.654;23.316;2022-09-28T00:21:14;93566.38;;;15.95;70.01
29197;BME280;62796;42.654;23.316;2022-09-28T00:23:40;93561.69;;;15.92;69.88
29197;BME280;62796;42.654;23.316;2022-09-28T00:26:26;93557.44;;;15.91;69.74
29197;BME280;62796;42.654;23.316;2022-09-28T00:28:53;93558.88;;;15.88;70.01
29197;BME280;62796;42.654;23.316;2022-09-28T00:31:19;93562.81;;;15.82;70.20
29197;BME280;62796;42.654;23.316;2022-09-28T00:33:51;93565.66;;;15.77;69.79
29197;BME280;62796;42.654;23.316;2022-09-28T00:36:19;93563.31;;;15.75;69.47
29197;BME280;62796;42.654;23.316;2022-09-28T00:38:44;93568.03;;;15.79;69.47
29197;BME280;62796;42.654;23.316;2022-09-28T00:41:11;93567.72;;;15.80;69.72
29197;BME280;62796;42.654;23.316;2022-09-28T00:43:36;93558.44;;;15.78;69.72
29197;BME280;62796;42.654;23.316;2022-09-28T00:46:07;93558.09;;;15.79;69.18
29197;BME280;62796;42.654;23.316;2022-09-28T00:48:38;93548.06;;;15.76;69.43
29197;BME280;62796;42.654;23.316;2022-09-28T00:51:08;93561.25;;;15.81;69.36
29197;BME280;62796;42.654;23.316;2022-09-28T00:53:36;93562.03;;;15.82;69.38
29197;BME280;62796;42.654;23.316;2022-09-28T00:56:07;93550.22;;;15.74;68.98
29197;BME280;62796;42.654;23.316;2022-09-28T00:58:41;93556.88;;;15.77;68.70
29197;BME280;62796;42.654;23.316;2022-09-28T01:01:08;93556.22;;;15.71;69.00
29197;BME280;62796;42.654;23.316;2022-09-28T01:03:34;93553.13;;;15.60;69.21
29197;BME280;62796;42.654;23.316;2022-09-28T01:06:02;93568.19;;;15.65;68.36
29197;BME280;62796;42.654;23.316;2022-09-28T01:08:30;93560.03;;;15.61;68.80
29197;BME280;62796;42.654;23.316;2022-09-28T01:10:58;93539.16;;;15.46;68.79
29197;BME280;62796;42.654;23.316;2022-09-28T01:13:24;93569.19;;;15.51;68.96
29197;BME280;62796;42.654;23.316;2022-09-28T01:15:58;93570.59;;;15.49;68.88
29197;BME280;62796;42.654;23.316;2022-09-28T01:21:20;93563.84;;;15.51;68.83
29197;BME280;62796;42.654;23.316;2022-09-28T01:29:14;93563.25;;;15.37;68.76
29197;BME280;62796;42.654;23.316;2022-09-28T01:31:44;93539.97;;;15.29;69.16
29197;BME280;62796;42.654;23.316;2022-09-28T01:34:17;93564.78;;;15.38;69.30
29197;BME280;62796;42.654;23.316;2022-09-28T01:36:51;93583.22;;;15.22;69.37
29197;BME280;62796;42.654;23.316;2022-09-28T01:39:35;93562.00;;;15.08;69.95
29197;BME280;62796;42.654;23.316;2022-09-28T01:42:06;93555.41;;;15.14;69.99
29197;BME280;62796;42.654;23.316;2022-09-28T01:44:36;93582.13;;;15.14;70.65
29197;BME280;62796;42.654;23.316;2022-09-28T01:47:06;93575.03;;;14.84;71.02
29197;BME280;62796;42.654;23.316;2022-09-28T01:49:51;93550.69;;;14.85;70.51
29197;BME280;62796;42.654;23.316;2022-09-28T01:52:31;93568.94;;;14.92;70.89
29197;BME280;62796;42.654;23.316;2022-09-28T01:55:12;93581.00;;;14.63;71.52
29197;BME280;62796;42.654;23.316;2022-09-28T01:57:49;93582.75;;;14.59;72.15
29197;BME280;62796;42.654;23.316;2022-09-28T02:00:17;93569.22;;;14.73;71.66
29197;BME280;62796;42.654;23.316;2022-09-28T02:02:48;93557.94;;;14.76;71.56
29197;BME280;62796;42.654;23.316;2022-09-28T02:05:39;93589.19;;;14.84;71.56
29197;BME280;62796;42.654;23.316;2022-09-28T02:08:22;93577.41;;;14.85;71.86
29197;BME280;62796;42.654;23.316;2022-09-28T02:11:00;93583.84;;;14.84;72.09
29197;BME280;62796;42.654;23.316;2022-09-28T02:13:32;93573.63;;;14.77;72.14
29197;BME280;62796;42.654;23.316;2022-09-28T02:16:04;93580.69;;;14.91;72.58
29197;BME280;62796;42.654;23.316;2022-09-28T02:18:33;93587.31;;;14.93;72.09
29197;BME280;62796;42.654;23.316;2022-09-28T02:21:25;93574.88;;;14.89;71.89
29197;BME280;62796;42.654;23.316;2022-09-28T02:23:58;93571.75;;;14.95;71.56
29197;BME280;62796;42.654;23.316;2022-09-28T02:26:30;93583.38;;;14.99;71.69
29197;BME280;62796;42.654;23.316;2022-09-28T02:28:57;93578.03;;;14.73;71.77
29197;BME280;62796;42.654;23.316;2022-09-28T02:31:24;93572.84;;;14.68;72.15
29197;BME280;62796;42.654;23.316;2022-09-28T02:33:50;93569.69;;;14.75;72.30
29197;BME280;62796;42.654;23.316;2022-09-28T02:36:17;93585.25;;;14.81;72.16
29197;BME280;62796;42.654;23.316;2022-09-28T02:38:43;93595.63;;;14.83;71.59
29197;BME280;62796;42.654;23.316;2022-09-28T02:47:15;93570.34;;;14.80;71.99
29197;BME280;62796;42.654;23.316;2022-09-28T02:50:19;93583.06;;;14.84;71.96
29197;BME280;62796;42.654;23.316;2022-09-28T03:04:57;93595.47;;;14.88;71.37
29197;BME280;62796;42.654;23.316;2022-09-28T03:07:35;93590.59;;;14.81;71.46
29197;BME280;62796;42.654;23.316;2022-09-28T03:12:34;93604.09;;;14.85;71.50
29197;BME280;62796;42.654;23.316;2022-09-28T03:15:13;93612.28;;;14.89;71.30
29197;BME280;62796;42.654;23.316;2022-09-28T03:17:43;93615.41;;;14.91;71.28
29197;BME280;62796;42.654;23.316;2022-09-28T03:20:09;93616.69;;;14.93;71.44
29197;BME280;62796;42.654;23.316;2022-09-28T03:22:34;93615.59;;;14.94;71.44
29197;BME280;62796;42.654;23.316;2022-09-28T03:24:59;93622.81;;;14.94;71.20
29197;BME280;62796;42.654;23.316;2022-09-28T03:27:25;93628.00;;;14.99;71.79
29197;BME280;62796;42.654;23.316;2022-09-28T03:29:50;93622.97;;;14.97;71.29
29197;BME280;62796;42.654;23.316;2022-09-28T03:32:15;93621.25;;;15.02;71.20
29197;BME280;62796;42.654;23.316;2022-09-28T03:34:41;93615.75;;;14.98;71.33
29197;BME280;62796;42.654;23.316;2022-09-28T03:37:06;93626.59;;;14.93;71.96
29197;BME280;62796;42.654;23.316;2022-09-28T03:39:32;93620.28;;;14.97;71.93
29197;BME280;62796;42.654;23.316;2022-09-28T03:41:59;93628.78;;;14.99;71.66
29197;BME280;62796;42.654;23.316;2022-09-28T03:44:24;93624.41;;;15.04;71.87
29197;BME280;62796;42.654;23.316;2022-09-28T03:46:50;93627.69;;;15.09;72.12
29197;BME280;62796;42.654;23.316;2022-09-28T03:49:15;93620.91;;;15.12;71.28
29197;BME280;62796;42.654;23.316;2022-09-28T03:51:41;93625.19;;;15.13;71.23
29197;BME280;62796;42.654;23.316;2022-09-28T03:54:06;93625.66;;;15.15;71.02
29197;BME280;62796;42.654;23.316;2022-09-28T03:56:31;93631.16;;;15.18;71.04
29197;BME280;62796;42.654;23.316;2022-09-28T03:58:57;93633.19;;;15.22;70.83
29197;BME280;62796;42.654;23.316;2022-09-28T04:01:22;93634.28;;;15.21;70.96
29197;BME280;62796;42.654;23.316;2022-09-28T04:03:52;93631.44;;;15.26;71.09
29197;BME280;62796;42.654;23.316;2022-09-28T04:06:19;93625.50;;;15.29;71.13
29197;BME280;62796;42.654;23.316;2022-09-28T04:08:44;93622.97;;;15.32;71.15
29197;BME280;62796;42.654;23.316;2022-09-28T04:11:10;93629.25;;;15.36;71.07
29197;BME280;62796;42.654;23.316;2022-09-28T04:13:35;93616.84;;;15.41;70.65
29197;BME280;62796;42.654;23.316;2022-09-28T04:16:01;93598.91;;;15.32;70.47
29197;BME280;62796;42.654;23.316;2022-09-28T04:18:27;93619.50;;;15.41;70.23
29197;BME280;62796;42.654;23.316;2022-09-28T04:21:03;93628.63;;;15.48;70.62
29197;BME280;62796;42.654;23.316;2022-09-28T04:23:36;93631.75;;;15.50;70.67
29197;BME280;62796;42.654;23.316;2022-09-28T04:26:06;93628.13;;;15.55;70.49
29197;BME280;62796;42.654;23.316;2022-09-28T04:28:32;93628.91;;;15.55;70.37
29197;BME280;62796;42.654;23.316;2022-09-28T04:31:18;93634.56;;;15.54;70.66
29197;BME280;62796;42.654;23.316;2022-09-28T04:33:44;93636.78;;;15.52;70.56
29197;BME280;62796;42.654;23.316;2022-09-28T04:36:10;93629.06;;;15.50;70.34
29197;BME280;62796;42.654;23.316;2022-09-28T04:38:38;93637.56;;;15.52;70.55
29197;BME280;62796;42.654;23.316;2022-09-28T04:41:04;93630.50;;;15.56;70.66
29197;BME280;62796;42.654;23.316;2022-09-28T04:43:31;93629.38;;;15.57;70.52
29197;BME280;62796;42.654;23.316;2022-09-28T04:46:03;93626.84;;;15.61;70.23
29197;BME280;62796;42.654;23.316;2022-09-28T04:48:32;93624.16;;;15.70;70.34
29197;BME280;62796;42.654;23.316;2022-09-28T04:50:59;93629.22;;;15.80;70.49
29197;BME280;62796;42.654;23.316;2022-09-28T04:53:26;93617.72;;;15.88;70.05
29197;BME280;62796;42.654;23.316;2022-09-28T04:58:24;93602.13;;;15.90;69.82
29197;BME280;62796;42.654;23.316;2022-09-28T05:00:50;93594.25;;;15.94;70.10
29197;BME280;62796;42.654;23.316;2022-09-28T05:03:19;93629.75;;;16.12;70.07
29197;BME280;62796;42.654;23.316;2022-09-28T05:05:46;93626.91;;;16.17;69.64
29197;BME280;62796;42.654;23.316;2022-09-28T05:08:12;93629.44;;;16.13;69.81
29197;BME280;62796;42.654;23.316;2022-09-28T05:10:38;93629.13;;;16.15;70.23
29197;BME280;62796;42.654;23.316;2022-09-28T05:13:07;93637.94;;;16.07;70.36
29197;BME280;62796;42.654;23.316;2022-09-28T05:15:33;93630.56;;;16.04;70.69
29197;BME280;62796;42.654;23.316;2022-09-28T05:17:59;93642.41;;;15.85;70.67
29197;BME280;62796;42.654;23.316;2022-09-28T05:20:24;93637.41;;;15.75;71.35
29197;BME280;62796;42.654;23.316;2022-09-28T05:22:49;93637.09;;;15.77;71.15
29197;BME280;62796;42.654;23.316;2022-09-28T05:25:15;93636.78;;;15.78;71.01
29197;BME280;62796;42.654;23.316;2022-09-28T05:27:40;93619.16;;;15.77;71.14
29197;BME280;62796;42.654;23.316;2022-09-28T05:30:06;93634.19;;;16.08;70.95
29197;BME280;62796;42.654;23.316;2022-09-28T05:32:32;93628.59;;;16.22;71.33
29197;BME280;62796;42.654;23.316;2022-09-28T05:34:57;93624.25;;;16.47;70.45
29197;BME280;62796;42.654;23.316;2022-09-28T05:37:25;93620.84;;;16.59;70.48
29197;BME280;62796;42.654;23.316;2022-09-28T05:39:50;93636.78;;;16.55;70.88
29197;BME280;62796;42.654;23.316;2022-09-28T05:42:16;93654.00;;;16.84;70.26
29197;BME280;62796;42.654;23.316;2022-09-28T05:44:41;93651.94;;;17.11;69.29
29197;BME280;62796;42.654;23.316;2022-09-28T05:47:06;93642.25;;;17.39;69.19
29197;BME280;62796;42.654;23.316;2022-09-28T05:49:32;93641.44;;;17.60;67.75
29197;BME280;62796;42.654;23.316;2022-09-28T05:51:57;93645.53;;;17.78;67.92
29197;BME280;62796;42.654;23.316;2022-09-28T05:54:23;93632.19;;;18.03;66.63
29197;BME280;62796;42.654;23.316;2022-09-28T05:56:48;93634.13;;;18.27;66.19
29197;BME280;62796;42.654;23.316;2022-09-28T05:59:13;93641.19;;;18.56;65.12
29197;BME280;62796;42.654;23.316;2022-09-28T06:01:39;93639.94;;;18.78;64.82
29197;BME280;62796;42.654;23.316;2022-09-28T06:04:05;93650.91;;;19.10;63.78
29197;BME280;62796;42.654;23.316;2022-09-28T06:06:30;93642.88;;;19.39;62.65
29197;BME280;62796;42.654;23.316;2022-09-28T06:08:55;93648.22;;;19.51;62.16
29197;BME280;62796;42.654;23.316;2022-09-28T06:11:21;93652.25;;;19.57;62.12
29197;BME280;62796;42.654;23.316;2022-09-28T06:13:52;93650.34;;;19.58;62.42
29197;BME280;62796;42.654;23.316;2022-09-28T06:16:18;93653.78;;;19.58;62.80
29197;BME280;62796;42.654;23.316;2022-09-28T06:18:43;93656.94;;;19.60;62.83
29197;BME280;62796;42.654;23.316;2022-09-28T06:21:09;93652.53;;;19.80;63.01
29197;BME280;62796;42.654;23.316;2022-09-28T06:23:36;93647.75;;;19.89;62.14
29197;BME280;62796;42.654;23.316;2022-09-28T06:26:02;93610.25;;;19.68;61.40
29197;BME280;62796;42.654;23.316;2022-09-28T06:28:27;93655.00;;;20.01;61.80
29197;BME280;62796;42.654;23.316;2022-09-28T06:30:53;93658.56;;;20.05;61.85
29197;BME280;62796;42.654;23.316;2022-09-28T06:33:18;93662.13;;;20.09;61.81
29197;BME280;62796;42.654;23.316;2022-09-28T06:35:43;93668.41;;;20.14;62.40
29197;BME280;62796;42.654;23.316;2022-09-28T06:38:09;93669.09;;;20.26;61.69
29197;BME280;62796;42.654;23.316;2022-09-28T06:40:35;93646.59;;;20.19;61.89
29197;BME280;62796;42.654;23.316;2022-09-28T06:43:12;93673.88;;;20.17;62.64
29197;BME280;62796;42.654;23.316;2022-09-28T06:45:40;93666.50;;;20.30;62.73
29197;BME280;62796;42.654;23.316;2022-09-28T06:48:06;93667.53;;;20.41;62.19
29197;BME280;62796;42.654;23.316;2022-09-28T06:50:38;93677.31;;;20.62;61.66
29197;BME280;62796;42.654;23.316;2022-09-28T06:53:05;93667.63;;;20.93;61.39
29197;BME280;62796;42.654;23.316;2022-09-28T06:55:31;93667.25;;;21.10;61.14
29197;BME280;62796;42.654;23.316;2022-09-28T06:57:57;93651.50;;;21.32;58.72
29197;BME280;62796;42.654;23.316;2022-09-28T07:00:24;93672.59;;;21.81;57.39
29197;BME280;62796;42.654;23.316;2022-09-28T07:02:50;93658.91;;;22.13;57.08
29197;BME280;62796;42.654;23.316;2022-09-28T07:05:15;93670.44;;;22.29;56.30
29197;BME280;62796;42.654;23.316;2022-09-28T07:07:41;93672.19;;;22.22;55.21
29197;BME280;62796;42.654;23.316;2022-09-28T07:10:10;93681.25;;;22.52;55.81
29197;BME280;62796;42.654;23.316;2022-09-28T07:12:35;93662.28;;;22.49;55.20
29197;BME280;62796;42.654;23.316;2022-09-28T07:15:01;93669.94;;;22.47;54.32
29197;BME280;62796;42.654;23.316;2022-09-28T07:17:26;93661.19;;;22.53;54.85
29197;BME280;62796;42.654;23.316;2022-09-28T07:19:52;93668.44;;;22.72;54.63
29197;BME280;62796;42.654;23.316;2022-09-28T07:22:20;93665.00;;;22.99;53.89
29197;BME280;62796;42.654;23.316;2022-09-28T07:24:46;93674.78;;;23.34;53.66
29197;BME280;62796;42.654;23.316;2022-09-28T07:27:12;93679.38;;;23.29;53.42
29197;BME280;62796;42.654;23.316;2022-09-28T07:29:38;93692.13;;;23.59;53.36
29197;BME280;62796;42.654;23.316;2022-09-28T07:32:03;93686.00;;;23.93;52.64
29197;BME280;62796;42.654;23.316;2022-09-28T07:34:29;93674.03;;;23.97;51.78
29197;BME280;62796;42.654;23.316;2022-09-28T07:36:54;93690.34;;;24.01;50.97
29197;BME280;62796;42.654;23.316;2022-09-28T07:39:22;93688.56;;;24.16;50.88
29197;BME280;62796;42.654;23.316;2022-09-28T07:41:47;93692.97;;;24.28;50.60
29197;BME280;62796;42.654;23.316;2022-09-28T07:44:13;93679.69;;;24.15;49.09
29197;BME280;62796;42.654;23.316;2022-09-28T07:46:39;93690.09;;;24.13;49.60
29197;BME280;62796;42.654;23.316;2022-09-28T07:49:05;93694.78;;;24.16;48.79
29197;BME280;62796;42.654;23.316;2022-09-28T07:51:31;93677.19;;;23.99;48.20
29197;BME280;62796;42.654;23.316;2022-09-28T07:53:57;93680.91;;;23.87;48.17
29197;BME280;62796;42.654;23.316;2022-09-28T07:56:23;93691.66;;;23.23;50.07
29197;BME280;62796;42.654;23.316;2022-09-28T07:58:49;93687.41;;;22.99;50.64
29197;BME280;62796;42.654;23.316;2022-09-28T08:01:15;93705.28;;;22.81;51.22
29197;BME280;62796;42.654;23.316;2022-09-28T08:03:42;93705.19;;;22.54;51.67
29197;BME280;62796;42.654;23.316;2022-09-28T08:06:13;93680.63;;;22.40;51.31
29197;BME280;62796;42.654;23.316;2022-09-28T08:08:40;93680.97;;;21.95;52.48
29197;BME280;62796;42.654;23.316;2022-09-28T08:11:13;93704.72;;;21.86;53.05
29197;BME280;62796;42.654;23.316;2022-09-28T08:13:39;93706.13;;;21.80;53.16
29197;BME280;62796;42.654;23.316;2022-09-28T08:16:06;93702.56;;;21.76;53.52
29197;BME280;62796;42.654;23.316;2022-09-28T08:18:33;93698.19;;;21.68;53.95
29197;BME280;62796;42.654;23.316;2022-09-28T08:21:00;93701.31;;;21.34;55.21
29197;BME280;62796;42.654;23.316;2022-09-28T08:23:44;93702.63;;;21.24;55.33
29197;BME280;62796;42.654;23.316;2022-09-28T08:26:09;93703.66;;;21.36;55.48
29197;BME280;62796;42.654;23.316;2022-09-28T08:28:35;93709.53;;;21.41;55.90
29197;BME280;62796;42.654;23.316;2022-09-28T08:31:01;93699.78;;;21.53;56.00
29197;BME280;62796;42.654;23.316;2022-09-28T08:33:26;93704.13;;;21.57;55.83
29197;BME280;62796;42.654;23.316;2022-09-28T08:35:56;93707.81;;;21.69;55.72
29197;BME280;62796;42.654;23.316;2022-09-28T08:38:23;93702.56;;;21.95;55.25
29197;BME280;62796;42.654;23.316;2022-09-28T08:41:16;93704.59;;;22.41;54.28
29197;BME280;62796;42.654;23.316;2022-09-28T08:46:41;93694.69;;;23.18;53.09
29197;BME280;62796;42.654;23.316;2022-09-28T08:49:24;93673.47;;;23.50;51.92
29197;BME280;62796;42.654;23.316;2022-09-28T08:52:02;93687.69;;;24.08;51.05
29197;BME280;62796;42.654;23.316;2022-09-28T08:54:50;93683.56;;;24.55;49.28
29197;BME280;62796;42.654;23.316;2022-09-28T08:57:44;93684.84;;;24.69;49.88
29197;BME280;62796;42.654;23.316;2022-09-28T09:00:29;93668.78;;;24.94;48.22
29197;BME280;62796;42.654;23.316;2022-09-28T09:02:56;93664.75;;;24.77;47.27
29197;BME280;62796;42.654;23.316;2022-09-28T09:05:36;93684.22;;;24.86;47.71
29197;BME280;62796;42.654;23.316;2022-09-28T09:14:07;93672.13;;;25.98;44.54
29197;BME280;62796;42.654;23.316;2022-09-28T09:19:52;93671.06;;;26.42;44.24
29197;BME280;62796;42.654;23.316;2022-09-28T09:25:14;93666.81;;;26.77;43.99
29197;BME280;62796;42.654;23.316;2022-09-28T09:30:20;93657.81;;;27.59;42.69
29197;BME280;62796;42.654;23.316;2022-09-28T09:39:24;93644.06;;;27.88;40.50
29197;BME280;62796;42.654;23.316;2022-09-28T09:41:54;93650.50;;;28.30;40.31
29197;BME280;62796;42.654;23.316;2022-09-28T09:47:10;93645.06;;;28.90;39.51
29197;BME280;62796;42.654;23.316;2022-09-28T09:49:55;93639.28;;;28.77;39.00
29197;BME280;62796;42.654;23.316;2022-09-28T09:55:04;93657.00;;;28.58;39.28
29197;BME280;62796;42.654;23.316;2022-09-28T09:57:41;93651.22;;;28.97;37.67
29197;BME280;62796;42.654;23.316;2022-09-28T10:00:11;93650.06;;;29.40;37.08
29197;BME280;62796;42.654;23.316;2022-09-28T10:02:38;93642.81;;;28.77;37.67
29197;BME280;62796;42.654;23.316;2022-09-28T10:05:13;93640.06;;;28.81;38.54
29197;BME280;62796;42.654;23.316;2022-09-28T10:07:52;93642.34;;;28.90;37.91
29197;BME280;62796;42.654;23.316;2022-09-28T10:10:24;93645.53;;;29.26;37.01
29197;BME280;62796;42.654;23.316;2022-09-28T10:12:52;93646.50;;;29.47;36.42
29197;BME280;62796;42.654;23.316;2022-09-28T10:15:22;93642.31;;;29.73;36.33
29197;BME280;62796;42.654;23.316;2022-09-28T10:17:48;93635.00;;;29.97;35.34
29197;BME280;62796;42.654;23.316;2022-09-28T10:20:14;93634.50;;;30.06;34.94
29197;BME280;62796;42.654;23.316;2022-09-28T10:22:41;93625.31;;;29.93;35.60
29197;BME280;62796;42.654;23.316;2022-09-28T10:25:08;93617.13;;;29.54;36.37
29197;BME280;62796;42.654;23.316;2022-09-28T10:27:39;93604.91;;;29.28;36.84
29197;BME280;62796;42.654;23.316;2022-09-28T10:32:39;93607.94;;;29.41;35.19
29197;BME280;62796;42.654;23.316;2022-09-28T10:43:05;93606.44;;;30.29;33.08
29197;BME280;62796;42.654;23.316;2022-09-28T10:45:36;93585.16;;;30.13;33.26
29197;BME280;62796;42.654;23.316;2022-09-28T10:48:12;93604.06;;;30.04;33.97
29197;BME280;62796;42.654;23.316;2022-09-28T10:50:39;93597.41;;;30.05;34.08
29197;BME280;62796;42.654;23.316;2022-09-28T10:53:18;93599.38;;;30.32;33.49
29197;BME280;62796;42.654;23.316;2022-09-28T10:55:56;93600.13;;;30.36;33.19
29197;BME280;62796;42.654;23.316;2022-09-28T10:58:37;93594.69;;;30.83;32.60
29197;BME280;62796;42.654;23.316;2022-09-28T11:01:13;93581.81;;;31.27;31.78
29197;BME280;62796;42.654;23.316;2022-09-28T11:06:13;93574.25;;;31.75;30.15
29197;BME280;62796;42.654;23.316;2022-09-28T11:08:41;93582.34;;;31.82;30.54
29197;BME280;62796;42.654;23.316;2022-09-28T11:11:12;93579.03;;;31.91;30.04
29197;BME280;62796;42.654;23.316;2022-09-28T11:13:47;93569.31;;;32.23;29.56
29197;BME280;62796;42.654;23.316;2022-09-28T11:16:24;93563.16;;;32.19;29.79
29197;BME280;62796;42.654;23.316;2022-09-28T11:18:50;93561.63;;;32.17;30.01
29197;BME280;62796;42.654;23.316;2022-09-28T11:21:21;93560.31;;;32.06;29.66
29197;BME280;62796;42.654;23.316;2022-09-28T11:24:16;93553.41;;;31.61;30.36
29197;BME280;62796;42.654;23.316;2022-09-28T11:26:46;93551.00;;;31.63;30.49
29197;BME280;62796;42.654;23.316;2022-09-28T11:32:00;93540.19;;;31.56;30.58
29197;BME280;62796;42.654;23.316;2022-09-28T11:34:42;93540.47;;;31.98;29.55
29197;BME280;62796;42.654;23.316;2022-09-28T11:45:21;93540.34;;;32.87;27.80
29197;BME280;62796;42.654;23.316;2022-09-28T11:47:59;93535.44;;;32.95;27.81
29197;BME280;62796;42.654;23.316;2022-09-28T11:56:17;93550.03;;;33.38;26.62
29197;BME280;62796;42.654;23.316;2022-09-28T11:58:52;93546.13;;;33.06;27.08
29197;BME280;62796;42.654;23.316;2022-09-28T12:01:20;93529.31;;;32.75;27.69
29197;BME280;62796;42.654;23.316;2022-09-28T12:03:52;93514.44;;;32.06;27.85
29197;BME280;62796;42.654;23.316;2022-09-28T12:06:26;93504.25;;;31.70;28.78
29197;BME280;62796;42.654;23.316;2022-09-28T12:09:04;93519.19;;;31.86;28.54
29197;BME280;62796;42.654;23.316;2022-09-28T12:11:35;93509.59;;;31.94;28.32
29197;BME280;62796;42.654;23.316;2022-09-28T12:14:05;93521.22;;;32.34;27.97
29197;BME280;62796;42.654;23.316;2022-09-28T12:19:34;93527.47;;;33.59;26.70
29197;BME280;62796;42.654;23.316;2022-09-28T12:22:11;93531.59;;;34.06;25.68
29197;BME280;62796;42.654;23.316;2022-09-28T12:24:43;93525.88;;;34.13;25.83
29197;BME280;62796;42.654;23.316;2022-09-28T12:32:49;93518.81;;;34.64;24.69
29197;BME280;62796;42.654;23.316;2022-09-28T12:38:37;93523.16;;;35.34;23.87
29197;BME280;62796;42.654;23.316;2022-09-28T12:41:27;93526.28;;;35.46;23.79
29197;BME280;62796;42.654;23.316;2022-09-28T12:44:20;93518.31;;;35.48;23.68
29197;BME280;62796;42.654;23.316;2022-09-28T12:49:31;93523.16;;;35.34;23.54
29197;BME280;62796;42.654;23.316;2022-09-28T12:57:48;93527.53;;;34.36;24.31
29197;BME280;62796;42.654;23.316;2022-09-28T13:00:15;93535.53;;;33.92;25.22
29197;BME280;62796;42.654;23.316;2022-09-28T13:08:55;93529.81;;;33.99;25.44
29197;BME280;62796;42.654;23.316;2022-09-28T13:11:32;93515.88;;;33.52;25.82
29197;BME280;62796;42.654;23.316;2022-09-28T13:21:57;93495.56;;;32.74;26.99
29197;BME280;62796;42.654;23.316;2022-09-28T13:24:27;93514.44;;;32.72;27.03
29197;BME280;62796;42.654;23.316;2022-09-28T13:26:58;93531.69;;;32.56;27.04
29197;BME280;62796;42.654;23.316;2022-09-28T13:29:29;93507.31;;;31.72;28.01
29197;BME280;62796;42.654;23.316;2022-09-28T13:31:57;93514.59;;;31.02;29.12
29197;BME280;62796;42.654;23.316;2022-09-28T13:34:26;93523.56;;;30.79;29.50
29197;BME280;62796;42.654;23.316;2022-09-28T13:37:22;93524.78;;;30.27;29.69
29197;BME280;62796;42.654;23.316;2022-09-28T13:39:53;93511.19;;;29.66;30.31
29197;BME280;62796;42.654;23.316;2022-09-28T13:48:18;93509.63;;;29.00;31.55
29197;BME280;62796;42.654;23.316;2022-09-28T13:51:09;93510.88;;;28.91;31.98
29197;BME280;62796;42.654;23.316;2022-09-28T13:54:06;93511.38;;;28.79;31.79
29197;BME280;62796;42.654;23.316;2022-09-28T13:56:48;93509.47;;;28.31;32.20
29197;BME280;62796;42.654;23.316;2022-09-28T13:59:24;93503.31;;;27.60;32.99
29197;BME280;62796;42.654;23.316;2022-09-28T14:02:10;93507.09;;;26.78;33.96
29197;BME280;62796;42.654;23.316;2022-09-28T14:04:58;93505.22;;;26.17;35.38
29197;BME280;62796;42.654;23.316;2022-09-28T14:15:00;93507.84;;;25.70;36.30
29197;BME280;62796;42.654;23.316;2022-09-28T14:19:53;93475.97;;;25.53;36.55
29197;BME280;62796;42.654;23.316;2022-09-28T14:25:09;93470.56;;;25.64;36.18
29197;BME280;62796;42.654;23.316;2022-09-28T14:30:24;93480.66;;;25.56;36.14
29197;BME280;62796;42.654;23.316;2022-09-28T14:32:58;93491.47;;;25.38;36.42
29197;BME280;62796;42.654;23.316;2022-09-28T14:38:19;93506.06;;;25.08;36.76
29197;BME280;62796;42.654;23.316;2022-09-28T14:41:07;93502.19;;;25.06;36.89
29197;BME280;62796;42.654;23.316;2022-09-28T14:48:48;93508.38;;;25.06;37.61
29197;BME280;62796;42.654;23.316;2022-09-28T14:53:52;93510.88;;;25.44;36.62
29197;BME280;62796;42.654;23.316;2022-09-28T14:56:19;93501.25;;;25.68;36.10
29197;BME280;62796;42.654;23.316;2022-09-28T14:58:46;93492.66;;;25.58;36.25
29197;BME280;62796;42.654;23.316;2022-09-28T15:01:18;93500.06;;;25.58;36.01
29197;BME280;62796;42.654;23.316;2022-09-28T15:03:47;93503.13;;;25.49;35.97
29197;BME280;62796;42.654;23.316;2022-09-28T15:06:15;93518.53;;;25.20;36.31
29197;BME280;62796;42.654;23.316;2022-09-28T15:08:41;93508.69;;;24.90;37.15
29197;BME280;62796;42.654;23.316;2022-09-28T15:11:13;93521.09;;;24.91;37.06
29197;BME280;62796;42.654;23.316;2022-09-28T15:13:40;93522.19;;;24.76;37.43
29197;BME280;62796;42.654;23.316;2022-09-28T15:16:09;93518.69;;;24.75;37.33
29197;BME280;62796;42.654;23.316;2022-09-28T15:21:09;93519.41;;;24.65;37.41
29197;BME280;62796;42.654;23.316;2022-09-28T15:23:37;93523.31;;;24.71;37.57
29197;BME280;62796;42.654;23.316;2022-09-28T15:26:06;93529.06;;;24.62;38.13
29197;BME280;62796;42.654;23.316;2022-09-28T15:28:34;93530.53;;;24.53;38.16
29197;BME280;62796;42.654;23.316;2022-09-28T15:31:01;93513.47;;;24.52;38.18
29197;BME280;62796;42.654;23.316;2022-09-28T15:33:34;93525.78;;;24.39;38.51
29197;BME280;62796;42.654;23.316;2022-09-28T15:36:24;93524.06;;;24.16;39.20
29197;BME280;62796;42.654;23.316;2022-09-28T15:39:00;93521.69;;;24.11;39.65
29197;BME280;62796;42.654;23.316;2022-09-28T15:41:27;93525.56;;;24.10;39.79
29197;BME280;62796;42.654;23.316;2022-09-28T15:44:15;93516.25;;;24.07;39.90
29197;BME280;62796;42.654;23.316;2022-09-28T15:46:44;93528.78;;;24.26;39.64